METAR AND TAF INFORMATION
METAR FOR FAOR
ADDS - METARS form results

(2124 UTC 28 September 2022)
Data provider http://aviationweather.gov/metar/data/
 
METAR text: FAOR 282100Z 03009KT CAVOK 15/07 Q1028 NOSIG
Conditions at: FAOR (JOHANNESBURG/TAM, ZA) observed 2100 UTC 28 September 2022
Temperature: 15.0°C (59°F)
Dewpoint: 7.0°C (45°F) [RH = 59%]
Pressure (altimeter): 30.35 inches Hg (1028.0 mb)
Winds: from the NNE (30 degrees) at 10 MPH (9 knots; 4.6 m/s)
Visibility: 6 or more miles (10+ km)
Ceiling: ceiling and visibility are OK
Clouds: unknown
Weather: no significant weather observed at this time

METAR text: FAOR 282030Z 02009KT CAVOK 16/07 Q1029 NOSIG
Conditions at: FAOR (JOHANNESBURG/TAM, ZA) observed 2030 UTC 28 September 2022
Temperature: 16.0°C (61°F)
Dewpoint: 7.0°C (45°F) [RH = 55%]
Pressure (altimeter): 30.38 inches Hg (1029.0 mb)
Winds: from the NNE (20 degrees) at 10 MPH (9 knots; 4.6 m/s)
Visibility: 6 or more miles (10+ km)
Ceiling: ceiling and visibility are OK
Clouds: unknown
Weather: no significant weather observed at this time

Forecast for: FAOR (JOHANNESBURG/TAM, ZA)
Text: TAF FAOR 281600Z 2818/2924 36010KT CAVOK TX25/2912Z TN12/2904Z
Forecast period: 1800 UTC 28 September 2022 to 1600 UTC 29 September 2022
Forecast type: FROM: standard forecast or significant change
Winds: from the N (360 degrees) at 12 MPH (10 knots; 5.1 m/s)
Visibility: 6 or more miles (10+ km)
Ceiling: unknown
Clouds: missing
Weather: no significant weather forecast for this period
Text: BECMG 2916/2918 VRB03KT
Forecast period: 1600 UTC 29 September 2022 to 0000 UTC 30 September 2022
Forecast type: BECOMING: Conditions expected to become as follows by 1800 UTC 29 September 2022
Winds: variable direction winds at 3 MPH (3 knots; 1.5 m/s)
Visibility: 6 or more miles (10+ km)
Ceiling: unknown
Clouds: missing
Weather: no significant weather forecast for this period

 AIRPORT MAP

 RUNWAY INFORMATION

 AIRPORT FREQUENCIES

 AIRPORT NEAR NAVIGATION AIDS


   

  admin@vaerocargo.online

counter free counter free

Flag Counter
© 2020 VAeroCargo : All Rights Reserved

VAeroCargo is an online virtual simulation site for Flight Simulation purposes only, and does not represent any of the real world airlines, Inc. in any capacity.
No resemblance to real-world navigation


BIG THANKS to VAM and its suite of system on basis of which this entire VA system has been built on
Thanks to the original developer of Virtual Airline Manager(VAM) - Mr. Alejandro Garcia